Time;durP1;ratioP1;P1;durP2;ratioP2;P2;SDS_P1;SDS_P2;PMS_P1;PMS_P2;Temp;Humidity;BMP_temperature;BMP_pressure;BME280_temperature;BME280_humidity;BME280_pressure;Samples;Min_cycle;Max_cycle;Signal;HPM_P1;HPM_P2
2021/04/30 00:01:15;;;;;;;26.67;19.40;;;16.70;99.90;;;;;;4974197;28;20346;-71
2021/04/30 00:03:41;;;;;;;28.70;20.13;;;16.70;99.90;;;;;;4956996;28;20027;-71
2021/04/30 00:06:06;;;;;;;23.02;17.05;;;16.60;99.90;;;;;;4974247;28;20118;-72
2021/04/30 00:08:33;;;;;;;26.88;18.10;;;16.50;99.90;;;;;;4974578;28;20402;-71
2021/04/30 00:10:59;;;;;;;23.88;16.77;;;16.50;99.90;;;;;;4974312;28;20027;-70
2021/04/30 00:13:25;;;;;;;25.15;16.80;;;16.50;99.90;;;;;;4974325;28;20027;-71
2021/04/30 00:15:51;;;;;;;24.30;16.45;;;16.40;99.90;;;;;;4957039;28;20015;-70
2021/04/30 00:18:17;;;;;;;27.02;17.02;;;16.30;99.90;;;;;;4974198;28;20050;-70
2021/04/30 00:20:55;;;;;;;21.83;15.93;;;16.30;99.90;;;;;;4974279;28;20038;-70
2021/04/30 00:23:26;;;;;;;24.95;16.65;;;16.20;99.90;;;;;;4956799;28;20026;-70
2021/04/30 00:25:54;;;;;;;21.80;16.20;;;16.20;99.90;;;;;;4974879;28;20178;-71
2021/04/30 00:28:20;;;;;;;23.33;16.20;;;16.20;99.90;;;;;;4977651;28;20027;-70
2021/04/30 00:30:48;;;;;;;22.75;16.15;;;16.10;99.90;;;;;;4960337;28;20092;-70
2021/04/30 00:33:15;;;;;;;20.65;15.50;;;16.10;99.90;;;;;;4977623;28;20409;-71
2021/04/30 00:35:44;;;;;;;24.52;16.65;;;16.00;99.90;;;;;;4977649;28;20019;-71
2021/04/30 00:38:11;;;;;;;21.08;15.85;;;16.00;99.90;;;;;;4977619;28;20019;-71
2021/04/30 00:40:38;;;;;;;21.95;15.32;;;16.00;99.90;;;;;;4977370;28;20027;-69
2021/04/30 00:43:04;;;;;;;20.65;15.27;;;16.00;99.90;;;;;;4959964;28;20023;-72
2021/04/30 00:45:31;;;;;;;21.30;14.27;;;16.00;99.90;;;;;;4977440;28;20031;-70
2021/04/30 00:47:57;;;;;;;28.10;15.25;;;16.00;99.90;;;;;;4977136;28;20512;-70
2021/04/30 00:50:26;;;;;;;22.52;15.18;;;16.00;99.90;;;;;;4977321;28;20118;-70
2021/04/30 00:52:52;;;;;;;19.08;14.60;;;16.00;99.90;;;;;;4977127;28;20042;-70
2021/04/30 00:55:21;;;;;;;22.10;13.88;;;16.00;99.90;;;;;;4960031;28;20027;-71
2021/04/30 00:57:58;;;;;;;19.92;14.77;;;15.90;99.90;;;;;;4977102;28;20026;-70
2021/04/30 01:00:26;;;;;;;21.73;15.00;;;15.80;99.90;;;;;;4977206;28;20034;-70
2021/04/30 01:02:53;;;;;;;30.13;17.40;;;15.60;99.90;;;;;;4977098;28;20026;-70
2021/04/30 01:05:20;;;;;;;28.55;18.00;;;15.50;99.90;;;;;;4977123;28;20019;-70
2021/04/30 01:07:46;;;;;;;29.80;18.88;;;15.20;99.90;;;;;;4977315;28;20031;-71
2021/04/30 01:10:12;;;;;;;24.45;17.88;;;15.00;99.90;;;;;;4976890;28;20023;-70
2021/04/30 01:12:39;;;;;;;26.10;18.48;;;15.00;99.90;;;;;;4976770;28;20027;-70
2021/04/30 01:15:06;;;;;;;25.75;18.67;;;15.10;99.90;;;;;;4976934;28;20023;-70
2021/04/30 01:17:35;;;;;;;25.42;18.65;;;15.00;99.90;;;;;;4976789;28;20019;-70
2021/04/30 01:20:02;;;;;;;24.05;18.65;;;14.90;99.90;;;;;;4959646;28;20474;-70
2021/04/30 01:22:39;;;;;;;28.40;19.10;;;14.90;99.90;;;;;;4976650;28;20026;-70
2021/04/30 01:25:16;;;;;;;28.00;18.40;;;14.90;99.90;;;;;;4976635;28;20019;-71
2021/04/30 01:27:43;;;;;;;30.85;18.90;;;15.00;99.90;;;;;;4976623;28;20031;-70
2021/04/30 01:30:13;;;;;;;28.60;19.27;;;15.00;99.90;;;;;;4976687;28;20440;-71
2021/04/30 01:32:39;;;;;;;31.27;20.23;;;15.00;99.90;;;;;;4976500;28;20097;-70
2021/04/30 01:35:07;;;;;;;29.80;19.25;;;15.00;99.90;;;;;;4976546;28;20481;-71
2021/04/30 01:37:33;;;;;;;32.03;19.15;;;15.10;99.90;;;;;;4958872;28;20358;-70
2021/04/30 01:39:59;;;;;;;28.55;19.27;;;15.20;99.90;;;;;;4976422;28;20027;-70
2021/04/30 01:42:26;;;;;;;33.25;19.70;;;15.20;99.90;;;;;;4976384;28;20023;-71
2021/04/30 01:44:52;;;;;;;33.80;20.75;;;15.20;99.90;;;;;;4958913;28;20026;-70
2021/04/30 01:47:18;;;;;;;29.25;19.85;;;15.20;99.90;;;;;;4975784;28;20081;-71
2021/04/30 01:49:45;;;;;;;29.90;20.00;;;15.20;99.90;;;;;;4975948;28;20031;-70
2021/04/30 01:52:11;;;;;;;31.25;19.67;;;15.20;99.90;;;;;;4976590;28;20030;-70
2021/04/30 01:54:38;;;;;;;26.10;19.25;;;15.10;99.90;;;;;;4975957;28;20515;-70
2021/04/30 01:57:04;;;;;;;28.98;19.88;;;15.20;99.90;;;;;;4976082;28;20102;-70
2021/04/30 01:59:30;;;;;;;27.20;19.05;;;15.20;99.90;;;;;;4976275;28;20027;-71
2021/04/30 02:01:57;;;;;;;29.42;18.60;;;15.20;99.90;;;;;;4976198;28;20030;-70
2021/04/30 02:04:23;;;;;;;29.08;18.80;;;15.30;99.90;;;;;;4976031;28;20019;-71
2021/04/30 02:06:49;;;;;;;29.20;19.10;;;15.40;99.90;;;;;;4975899;28;20034;-70
2021/04/30 02:09:15;;;;;;;26.30;18.40;;;15.40;99.90;;;;;;4975619;28;20027;-70
2021/04/30 02:11:41;;;;;;;25.02;18.75;;;15.50;99.90;;;;;;4975753;28;20093;-71
2021/04/30 02:14:07;;;;;;;25.55;19.58;;;15.40;99.90;;;;;;4975892;28;20058;-70
2021/04/30 02:16:34;;;;;;;26.63;18.55;;;15.50;99.90;;;;;;4975591;28;20030;-70
2021/04/30 02:19:00;;;;;;;27.55;18.33;;;15.50;99.90;;;;;;4975999;28;20385;-70
2021/04/30 02:21:26;;;;;;;24.92;16.85;;;15.60;99.90;;;;;;4975637;28;20022;-69
2021/04/30 02:23:53;;;;;;;26.80;18.42;;;15.70;99.90;;;;;;4975596;28;20122;-70
2021/04/30 02:26:22;;;;;;;30.88;20.25;;;15.70;99.90;;;;;;4975304;28;20502;-70
2021/04/30 02:28:48;;;;;;;31.20;19.92;;;15.70;99.90;;;;;;4975573;28;20026;-70
2021/04/30 02:31:15;;;;;;;29.85;20.13;;;15.60;99.90;;;;;;4975518;28;20027;-70
2021/04/30 02:33:42;;;;;;;29.33;19.33;;;15.60;99.90;;;;;;4975545;28;20030;-71
2021/04/30 02:36:09;;;;;;;31.63;19.45;;;15.60;99.90;;;;;;4975376;28;20018;-71
2021/04/30 02:38:35;;;;;;;30.33;19.52;;;15.60;99.90;;;;;;4975533;28;20022;-71
2021/04/30 02:41:02;;;;;;;27.60;18.50;;;15.60;99.90;;;;;;4975344;28;20054;-70
2021/04/30 02:43:28;;;;;;;31.15;19.02;;;15.70;99.90;;;;;;4975248;28;20022;-69
2021/04/30 02:45:54;;;;;;;29.73;19.85;;;15.70;99.90;;;;;;4957639;28;20376;-70
2021/04/30 02:48:26;;;;;;;26.48;18.55;;;15.70;99.90;;;;;;4975100;28;20034;-71
2021/04/30 02:50:53;;;;;;;29.45;18.33;;;15.70;99.90;;;;;;4975542;28;20053;-70
2021/04/30 02:53:19;;;;;;;27.73;17.30;;;15.80;99.90;;;;;;4975121;28;20081;-70
2021/04/30 02:55:45;;;;;;;23.80;16.25;;;15.70;99.90;;;;;;4974962;28;20026;-70
2021/04/30 02:58:11;;;;;;;29.70;17.85;;;15.70;99.90;;;;;;4975138;28;20030;-70
2021/04/30 03:00:38;;;;;;;27.58;17.13;;;15.70;99.90;;;;;;4974802;28;20039;-70
2021/04/30 03:03:04;;;;;;;28.60;17.17;;;15.60;99.90;;;;;;4974882;28;20034;-70
2021/04/30 03:05:30;;;;;;;24.83;16.48;;;15.50;99.90;;;;;;4957588;28;20027;-70
2021/04/30 03:07:56;;;;;;;23.65;15.27;;;15.50;99.90;;;;;;4974757;28;20089;-71
2021/04/30 03:10:22;;;;;;;23.15;16.08;;;15.60;99.90;;;;;;4974948;28;20026;-71
2021/04/30 03:12:48;;;;;;;27.08;17.05;;;15.60;99.90;;;;;;4974865;28;20030;-70
2021/04/30 03:15:16;;;;;;;25.67;17.52;;;15.60;99.90;;;;;;4974936;28;20023;-69
2021/04/30 03:17:43;;;;;;;24.95;17.08;;;15.60;99.90;;;;;;4974655;28;20034;-69
2021/04/30 03:20:10;;;;;;;22.50;15.77;;;15.60;99.90;;;;;;4974804;28;20038;-70
2021/04/30 03:22:36;;;;;;;25.33;16.58;;;15.60;99.90;;;;;;4974941;28;20027;-70
2021/04/30 03:25:04;;;;;;;25.88;16.92;;;15.60;99.90;;;;;;4974600;28;20176;-71
2021/04/30 03:27:30;;;;;;;25.52;17.10;;;15.70;99.90;;;;;;4974853;28;20027;-70
2021/04/30 03:29:56;;;;;;;32.08;18.08;;;15.60;99.90;;;;;;4974696;28;20118;-70
2021/04/30 03:32:25;;;;;;;25.33;16.63;;;15.70;99.90;;;;;;4957212;28;20023;-71
2021/04/30 03:34:52;;;;;;;22.58;15.43;;;15.60;99.90;;;;;;4974890;28;20048;-71
2021/04/30 03:37:20;;;;;;;28.50;18.00;;;15.70;99.90;;;;;;4974477;28;20350;-71
2021/04/30 03:39:46;;;;;;;29.02;18.40;;;15.70;99.90;;;;;;4974667;28;20026;-70
2021/04/30 03:42:12;;;;;;;24.00;16.65;;;15.60;99.90;;;;;;4974513;28;20054;-71
2021/04/30 03:44:38;;;;;;;29.85;19.13;;;15.60;99.90;;;;;;4974564;28;20058;-71
2021/04/30 03:47:04;;;;;;;31.70;19.17;;;15.70;99.90;;;;;;4974065;28;20436;-71
2021/04/30 03:49:30;;;;;;;30.60;19.05;;;15.60;99.90;;;;;;4957063;28;20023;-71
2021/04/30 03:51:56;;;;;;;30.75;20.08;;;15.50;99.90;;;;;;4974446;28;20030;-70
2021/04/30 03:54:22;;;;;;;31.98;19.35;;;15.50;99.90;;;;;;4974438;28;20029;-70
2021/04/30 03:56:48;;;;;;;21.77;15.75;;;15.50;99.90;;;;;;4957090;28;20062;-69
2021/04/30 03:59:14;;;;;;;23.20;14.63;;;15.50;99.90;;;;;;4974454;28;20023;-70
2021/04/30 04:01:40;;;;;;;21.88;15.18;;;15.50;99.90;;;;;;4976472;28;20018;-71
2021/04/30 04:04:06;;;;;;;22.75;15.25;;;15.50;99.90;;;;;;4978439;28;20514;-71
2021/04/30 04:06:32;;;;;;;21.98;15.40;;;15.50;99.90;;;;;;4978104;28;20027;-71
2021/04/30 04:08:59;;;;;;;23.25;15.43;;;15.50;99.90;;;;;;4978112;28;20042;-70
2021/04/30 04:11:25;;;;;;;25.85;14.55;;;15.50;99.90;;;;;;4978208;28;20477;-70
2021/04/30 04:13:51;;;;;;;25.17;14.50;;;15.50;99.90;;;;;;4978018;28;20038;-70
2021/04/30 04:16:17;;;;;;;22.05;12.70;;;15.50;99.90;;;;;;4978096;28;20027;-71
2021/04/30 04:18:43;;;;;;;19.33;11.27;;;15.50;99.90;;;;;;4977959;28;20025;-70
2021/04/30 04:21:08;;;;;;;19.85;11.00;;;15.60;99.90;;;;;;4978076;28;20027;-70
2021/04/30 04:23:34;;;;;;;16.30;10.70;;;15.70;99.90;;;;;;4960718;28;20062;-70
2021/04/30 04:26:00;;;;;;;22.40;10.68;;;15.70;99.90;;;;;;4977672;28;20053;-70
2021/04/30 04:28:26;;;;;;;17.00;10.52;;;15.70;99.90;;;;;;4977501;28;20030;-71
2021/04/30 04:30:52;;;;;;;17.63;10.55;;;15.80;99.90;;;;;;4977708;28;20023;-70
2021/04/30 04:33:19;;;;;;;118.55;86.30;;;15.90;99.90;;;;;;4978162;28;20026;-70
2021/04/30 04:35:45;;;;;;;73.57;55.25;;;15.80;99.90;;;;;;4977581;28;20500;-70
2021/04/30 04:38:11;;;;;;;73.28;54.08;;;15.90;99.90;;;;;;4977618;28;20019;-70
2021/04/30 04:40:37;;;;;;;75.88;57.20;;;15.90;99.90;;;;;;4977286;28;20022;-71
2021/04/30 04:43:03;;;;;;;30.90;20.10;;;15.90;99.90;;;;;;4977551;28;20535;-71
2021/04/30 04:45:29;;;;;;;19.02;11.65;;;15.90;99.90;;;;;;4977096;28;20570;-70
2021/04/30 04:47:55;;;;;;;24.05;13.55;;;15.90;99.90;;;;;;4976970;28;20085;-70
2021/04/30 04:50:21;;;;;;;17.67;7.70;;;15.90;99.90;;;;;;4977356;28;20081;-70
2021/04/30 04:52:47;;;;;;;13.60;7.18;;;15.90;99.90;;;;;;4977160;28;20054;-69
2021/04/30 04:55:17;;;;;;;12.18;7.05;;;15.90;99.90;;;;;;4976969;28;20065;-70
2021/04/30 04:57:44;;;;;;;15.07;9.70;;;15.90;99.90;;;;;;4976989;28;20031;-71
2021/04/30 05:00:15;;;;;;;16.67;10.32;;;15.90;99.90;;;;;;4977210;28;20034;-70
2021/04/30 05:02:41;;;;;;;17.52;9.75;;;16.00;99.90;;;;;;4976846;28;20493;-70
2021/04/30 05:05:08;;;;;;;17.58;9.00;;;16.10;99.90;;;;;;4959459;28;20504;-69
2021/04/30 05:07:34;;;;;;;14.57;9.40;;;16.10;99.90;;;;;;4976990;28;20023;-72
2021/04/30 05:10:00;;;;;;;19.75;11.45;;;16.10;99.90;;;;;;4959558;28;20026;-69
2021/04/30 05:12:26;;;;;;;22.73;18.90;;;16.20;99.90;;;;;;4976611;28;20027;-70
2021/04/30 05:14:52;;;;;;;17.20;11.63;;;16.20;99.90;;;;;;4976836;28;20365;-72
2021/04/30 05:17:18;;;;;;;37.58;27.38;;;16.20;99.90;;;;;;4976877;28;20346;-70
2021/04/30 05:19:48;;;;;;;95.88;55.10;;;16.30;99.90;;;;;;4976526;28;20112;-70
2021/04/30 05:22:15;;;;;;;35.47;23.15;;;16.20;99.90;;;;;;4959224;28;20027;-71
2021/04/30 05:24:42;;;;;;;36.15;22.33;;;16.10;99.90;;;;;;4976628;28;20034;-69
2021/04/30 05:27:11;;;;;;;28.25;17.17;;;16.10;99.90;;;;;;4976511;28;20031;-70
2021/04/30 05:29:41;;;;;;;27.20;17.42;;;16.20;99.90;;;;;;4976293;28;20025;-69
2021/04/30 05:32:07;;;;;;;27.13;16.55;;;16.20;99.90;;;;;;4976392;28;20152;-71
2021/04/30 05:34:35;;;;;;;28.02;16.60;;;16.30;99.90;;;;;;4976366;28;20022;-70
2021/04/30 05:37:01;;;;;;;24.10;14.48;;;16.40;99.90;;;;;;4976332;28;20491;-69
2021/04/30 05:39:27;;;;;;;20.67;13.65;;;16.50;99.90;;;;;;4976215;28;20027;-71
2021/04/30 05:41:53;;;;;;;21.60;13.32;;;16.40;99.90;;;;;;4976331;28;20101;-71
2021/04/30 05:44:19;;;;;;;19.02;12.57;;;16.40;99.90;;;;;;4958754;28;20139;-70
2021/04/30 05:46:45;;;;;;;22.95;12.70;;;16.60;99.90;;;;;;4955037;29;20051;-71
2021/04/30 05:49:11;;;;;;;20.45;13.23;;;16.70;99.90;;;;;;4956761;28;20019;-70
2021/04/30 05:51:37;;;;;;;25.90;14.57;;;16.70;99.90;;;;;;4956689;28;20115;-71
2021/04/30 05:54:04;;;;;;;19.33;14.02;;;16.90;99.90;;;;;;4956872;28;20098;-71
2021/04/30 05:56:30;;;;;;;22.45;14.27;;;16.90;99.90;;;;;;4955283;29;20023;-71
2021/04/30 05:58:56;;;;;;;23.40;14.20;;;17.00;99.90;;;;;;4956827;28;20027;-71
2021/04/30 06:01:22;;;;;;;25.50;15.82;;;16.80;99.90;;;;;;4956498;28;20027;-71
2021/04/30 06:03:49;;;;;;;24.73;16.10;;;16.80;99.90;;;;;;4956592;28;20078;-71
2021/04/30 06:06:14;;;;;;;22.10;15.35;;;16.80;99.90;;;;;;4955059;29;20067;-71
2021/04/30 06:08:40;;;;;;;21.73;13.98;;;16.80;99.90;;;;;;4956561;28;20047;-71
2021/04/30 06:11:06;;;;;;;20.95;12.77;;;17.00;99.90;;;;;;4956188;28;20052;-70
2021/04/30 06:13:33;;;;;;;17.95;11.25;;;17.20;99.90;;;;;;4956300;28;20023;-70
2021/04/30 06:15:59;;;;;;;17.75;10.68;;;17.30;99.90;;;;;;4956338;28;20027;-70
2021/04/30 06:18:26;;;;;;;15.88;8.52;;;17.40;99.90;;;;;;4956349;28;20038;-71
2021/04/30 06:20:52;;;;;;;16.60;9.18;;;17.40;99.90;;;;;;4956238;28;20019;-72
2021/04/30 06:23:18;;;;;;;15.45;9.35;;;17.30;99.90;;;;;;4955731;28;20023;-71
2021/04/30 06:25:44;;;;;;;13.40;8.60;;;17.30;99.90;;;;;;4955762;28;20031;-71
2021/04/30 06:28:10;;;;;;;14.38;9.00;;;17.40;99.90;;;;;;4955954;28;20106;-71
2021/04/30 06:30:36;;;;;;;15.82;8.13;;;17.50;99.90;;;;;;4956034;28;20019;-70
2021/04/30 06:33:02;;;;;;;14.05;8.93;;;17.60;99.90;;;;;;4956063;28;20099;-72
2021/04/30 06:35:29;;;;;;;23.08;16.42;;;17.60;99.90;;;;;;4955777;29;20027;-71
2021/04/30 06:37:55;;;;;;;16.48;10.88;;;17.70;99.90;;;;;;4955974;28;20381;-70
2021/04/30 06:40:20;;;;;;;15.05;10.13;;;17.90;99.90;;;;;;4955814;28;20028;-70
2021/04/30 06:42:46;;;;;;;19.33;11.65;;;17.90;99.90;;;;;;4955727;28;20110;-71
2021/04/30 06:45:13;;;;;;;23.55;10.43;;;17.80;99.90;;;;;;4955829;28;20034;-71
2021/04/30 06:47:40;;;;;;;17.33;9.55;;;17.80;99.90;;;;;;4969862;28;20401;-70
2021/04/30 06:50:06;;;;;;;13.25;9.38;;;17.80;99.90;;;;;;4974892;28;20027;-72
2021/04/30 06:52:33;;;;;;;13.77;9.13;;;;;;;;;;4975059;28;20023;-70
2021/04/30 06:54:59;;;;;;;19.67;9.25;;;18.10;99.90;;;;;;4974783;28;20019;-71
2021/04/30 06:57:25;;;;;;;18.42;11.20;;;;;;;;;;4974873;28;20442;-71
2021/04/30 06:59:51;;;;;;;18.15;11.50;;;18.60;99.90;;;;;;4974863;28;20023;-71
2021/04/30 07:02:17;;;;;;;20.67;11.93;;;18.80;99.90;;;;;;4974732;28;20507;-70
2021/04/30 07:04:42;;;;;;;22.00;11.48;;;19.20;99.90;;;;;;4974825;28;20370;-71
2021/04/30 07:07:09;;;;;;;19.38;10.90;;;19.40;99.90;;;;;;4957310;28;20489;-71
2021/04/30 07:09:35;;;;;;;31.85;19.10;;;19.60;99.90;;;;;;4974977;28;20018;-71
2021/04/30 07:12:01;;;;;;;19.90;12.77;;;19.80;99.90;;;;;;4974824;28;20019;-71
2021/04/30 07:14:27;;;;;;;16.60;9.95;;;20.10;99.90;;;;;;4974692;28;20497;-73
2021/04/30 07:16:53;;;;;;;17.00;10.25;;;20.20;99.90;;;;;;4974952;28;20026;-71
2021/04/30 07:19:19;;;;;;;15.45;8.93;;;20.30;99.90;;;;;;4974758;28;20049;-71
2021/04/30 07:21:45;;;;;;;14.10;9.00;;;20.50;99.90;;;;;;4974811;28;20023;-71
2021/04/30 07:24:11;;;;;;;12.00;7.63;;;20.70;99.90;;;;;;4957349;28;20050;-71
2021/04/30 07:26:37;;;;;;;16.77;8.55;;;20.80;98.80;;;;;;4957103;28;20030;-72
2021/04/30 07:29:03;;;;;;;16.52;9.60;;;21.00;99.90;;;;;;4974663;28;20030;-72
2021/04/30 07:31:29;;;;;;;14.18;9.80;;;21.10;98.40;;;;;;4974638;28;20051;-71
2021/04/30 07:33:55;;;;;;;15.63;9.27;;;21.10;99.90;;;;;;4975056;28;20025;-71
2021/04/30 07:36:21;;;;;;;13.07;7.57;;;21.20;99.90;;;;;;4960338;28;20552;-74
2021/04/30 07:38:47;;;;;;;11.90;6.72;;;21.30;97.20;;;;;;4978674;28;20022;-71
2021/04/30 07:41:13;;;;;;;12.60;7.65;;;21.40;94.50;;;;;;4978993;28;20015;-72
2021/04/30 07:43:39;;;;;;;13.30;7.10;;;21.50;94.70;;;;;;4978361;28;20377;-72
2021/04/30 07:46:06;;;;;;;9.45;4.47;;;21.80;93.60;;;;;;4978425;28;20114;-72
2021/04/30 07:48:32;;;;;;;7.57;3.92;;;21.90;90.10;;;;;;4978525;28;20477;-72
2021/04/30 07:51:02;;;;;;;7.10;3.38;;;22.10;85.30;;;;;;4978446;28;20027;-71
2021/04/30 07:53:34;;;;;;;8.55;4.00;;;22.30;82.10;;;;;;4978553;28;20516;-71
2021/04/30 07:56:01;;;;;;;10.57;4.13;;;22.50;92.40;;;;;;4978458;28;20027;-71
2021/04/30 07:58:28;;;;;;;9.73;3.30;;;22.60;83.50;;;;;;4978212;28;20069;-71
2021/04/30 08:00:58;;;;;;;8.98;3.65;;;22.60;83.60;;;;;;4960768;28;20089;-72
2021/04/30 08:03:24;;;;;;;7.28;2.90;;;22.70;90.40;;;;;;4977916;28;20052;-73
2021/04/30 08:05:51;;;;;;;7.85;2.97;;;22.60;80.60;;;;;;4977749;28;20389;-71
2021/04/30 08:08:18;;;;;;;9.73;3.78;;;22.70;81.20;;;;;;4978010;28;20532;-71
2021/04/30 08:10:44;;;;;;;11.15;5.22;;;22.60;86.50;;;;;;4978170;28;20061;-73
2021/04/30 08:13:11;;;;;;;9.65;4.60;;;22.70;86.10;;;;;;4978276;28;20376;-71
2021/04/30 08:15:37;;;;;;;11.88;7.50;;;22.70;86.10;;;;;;4977875;28;20043;-71
2021/04/30 08:18:03;;;;;;;9.68;4.90;;;22.80;90.00;;;;;;4978050;28;20015;-72
2021/04/30 08:20:30;;;;;;;10.40;5.18;;;22.70;89.30;;;;;;4977699;28;20030;-72
2021/04/30 08:22:56;;;;;;;10.20;3.65;;;22.70;91.00;;;;;;4977020;28;20027;-71
2021/04/30 08:25:22;;;;;;;7.07;2.78;;;22.80;90.10;;;;;;4977740;28;20073;-73
2021/04/30 08:27:48;;;;;;;8.73;3.15;;;22.90;90.20;;;;;;4977727;28;20113;-72
2021/04/30 08:30:15;;;;;;;8.30;2.97;;;23.20;89.60;;;;;;4977852;28;20099;-73
2021/04/30 08:32:42;;;;;;;10.77;2.97;;;23.20;84.60;;;;;;4977735;28;20527;-71
2021/04/30 08:35:08;;;;;;;10.10;2.92;;;23.10;83.60;;;;;;4977443;28;20094;-72
2021/04/30 08:37:34;;;;;;;6.72;2.80;;;;;;;;;;4977924;28;20380;-73
2021/04/30 08:40:01;;;;;;;9.57;3.42;;;23.40;90.10;;;;;;4977312;28;20031;-72
2021/04/30 08:42:28;;;;;;;9.00;3.17;;;23.60;86.70;;;;;;4977358;28;20023;-72
2021/04/30 08:44:54;;;;;;;9.13;4.70;;;23.70;88.20;;;;;;4977695;28;20038;-72
2021/04/30 08:47:21;;;;;;;10.43;4.47;;;23.90;88.50;;;;;;4976297;28;20061;-72
2021/04/30 08:49:52;;;;;;;7.57;3.75;;;23.80;87.90;;;;;;4960108;28;20504;-72
2021/04/30 08:52:19;;;;;;;8.02;3.22;;;23.80;84.40;;;;;;4977197;28;20047;-72
2021/04/30 08:54:49;;;;;;;8.00;3.13;;;23.80;82.80;;;;;;4977136;28;20506;-72
2021/04/30 08:57:20;;;;;;;9.93;3.83;;;23.90;71.30;;;;;;4977395;28;20096;-72
2021/04/30 08:59:46;;;;;;;9.68;3.38;;;23.80;79.90;;;;;;4959824;28;20031;-72
2021/04/30 09:02:12;;;;;;;7.63;3.13;;;23.70;75.80;;;;;;4977178;28;20049;-71
2021/04/30 09:04:41;;;;;;;7.90;3.00;;;23.70;74.70;;;;;;4977334;28;20019;-71
2021/04/30 09:07:20;;;;;;;9.25;3.80;;;23.70;72.40;;;;;;4977274;28;20023;-72
2021/04/30 09:10:05;;;;;;;7.68;2.88;;;23.70;72.50;;;;;;4977062;28;20027;-72
2021/04/30 09:12:32;;;;;;;9.57;2.88;;;23.60;74.70;;;;;;4959638;28;20022;-72
2021/04/30 09:14:58;;;;;;;6.80;2.70;;;23.40;76.70;;;;;;4977118;28;20077;-70
2021/04/30 09:17:27;;;;;;;7.13;2.70;;;23.30;76.70;;;;;;4976349;28;20015;-73
2021/04/30 09:19:59;;;;;;;7.65;3.00;;;23.50;78.90;;;;;;4976705;28;20027;-72
2021/04/30 09:22:31;;;;;;;6.47;2.70;;;23.80;71.20;;;;;;4976731;28;20037;-70
2021/04/30 09:24:59;;;;;;;6.55;2.60;;;23.70;69.50;;;;;;4976689;28;20037;-71
2021/04/30 09:27:50;;;;;;;4.72;2.40;;;23.40;71.20;;;;;;4976712;28;20026;-71
2021/04/30 09:30:20;;;;;;;6.47;2.65;;;23.40;71.90;;;;;;4959222;28;20031;-71
2021/04/30 09:33:06;;;;;;;7.03;2.22;;;23.40;72.10;;;;;;4976599;28;20113;-73
2021/04/30 09:35:40;;;;;;;5.05;2.30;;;23.40;71.00;;;;;;4976297;28;20039;-70
2021/04/30 09:38:28;;;;;;;8.00;2.47;;;23.30;71.70;;;;;;4976764;28;20026;-71
2021/04/30 09:41:00;;;;;;;5.88;2.33;;;23.30;74.30;;;;;;4959211;28;20027;-73
2021/04/30 09:43:39;;;;;;;5.40;2.20;;;23.40;73.90;;;;;;4976182;28;20019;-71
2021/04/30 09:46:35;;;;;;;4.93;2.10;;;23.30;74.00;;;;;;4975894;28;20027;-72
2021/04/30 09:49:16;;;;;;;5.20;2.03;;;23.40;70.00;;;;;;4976275;28;20026;-70
2021/04/30 09:51:45;;;;;;;5.80;2.10;;;23.60;70.40;;;;;;4976275;28;20030;-70
2021/04/30 09:54:18;;;;;;;6.60;2.40;;;24.00;71.30;;;;;;4958560;28;20029;-71
2021/04/30 09:56:46;;;;;;;7.25;2.28;;;24.30;69.50;;;;;;4976058;28;20062;-71
2021/04/30 09:59:24;;;;;;;6.65;2.40;;;24.40;71.60;;;;;;4957734;28;20057;-71
2021/04/30 10:02:05;;;;;;;7.55;2.85;;;24.50;70.90;;;;;;4976131;28;20054;-72
2021/04/30 10:04:34;;;;;;;5.80;2.20;;;24.70;66.90;;;;;;4958511;28;20077;-71
2021/04/30 10:07:01;;;;;;;6.28;2.30;;;24.60;64.20;;;;;;4958276;28;20027;-70
2021/04/30 10:09:29;;;;;;;6.78;2.53;;;25.00;68.50;;;;;;4975844;28;20019;-72
2021/04/30 10:11:55;;;;;;;8.57;2.63;;;25.50;71.40;;;;;;4975742;28;20485;-73
2021/04/30 10:14:23;;;;;;;8.55;2.72;;;26.00;70.60;;;;;;4975902;28;20086;-73
2021/04/30 10:16:50;;;;;;;7.25;2.70;;;26.00;70.70;;;;;;4975521;28;20547;-71
2021/04/30 10:19:16;;;;;;;7.10;2.75;;;26.10;69.90;;;;;;4975783;28;20023;-74
2021/04/30 10:21:45;;;;;;;7.13;2.40;;;26.30;71.20;;;;;;4975252;28;20048;-73
2021/04/30 10:24:15;;;;;;;7.70;2.60;;;26.60;72.00;;;;;;4975689;28;20106;-76
2021/04/30 10:26:43;;;;;;;5.95;2.35;;;26.60;67.40;;;;;;4975268;28;20081;-72
2021/04/30 10:29:22;;;;;;;5.50;1.80;;;26.70;68.70;;;;;;4975312;28;20532;-73
2021/04/30 10:31:51;;;;;;;5.10;2.20;;;26.70;65.20;;;;;;4975723;28;20084;-72
2021/04/30 10:34:30;;;;;;;5.43;2.30;;;26.60;66.10;;;;;;4974989;28;20035;-71
2021/04/30 10:37:03;;;;;;;13.00;4.70;;;26.40;65.90;;;;;;4975048;28;20042;-71
2021/04/30 10:39:32;;;;;;;8.25;2.60;;;26.20;62.70;;;;;;4975316;28;20432;-73
2021/04/30 10:42:22;;;;;;;10.60;4.15;;;26.20;67.50;;;;;;4975438;28;20030;-73
2021/04/30 10:44:58;;;;;;;8.20;3.60;;;26.30;65.10;;;;;;4957828;28;20104;-72
2021/04/30 10:47:25;;;;;;;7.55;3.30;;;26.60;65.30;;;;;;4974765;28;20050;-71
2021/04/30 10:50:29;;;;;;;6.80;2.30;;;26.80;61.30;;;;;;4975286;28;20489;-71
2021/04/30 10:53:21;;;;;;;8.82;3.35;;;27.30;60.00;;;;;;4896848;29;20108;-71
2021/04/30 10:55:47;;;;;;;13.63;4.40;;;27.70;63.50;;;;;;4896496;29;20048;-72
2021/04/30 10:58:30;;;;;;;7.68;2.63;;;27.70;63.00;;;;;;4897020;29;20048;-73
2021/04/30 11:00:56;;;;;;;6.78;2.20;;;28.10;62.60;;;;;;4896509;29;20071;-73
2021/04/30 11:03:24;;;;;;;7.28;2.42;;;28.50;59.30;;;;;;4896249;29;20059;-71
2021/04/30 11:05:58;;;;;;;9.57;3.30;;;28.80;63.30;;;;;;4896634;29;20028;-72
2021/04/30 11:08:46;;;;;;;9.65;4.25;;;28.70;63.40;;;;;;4896413;29;20051;-75
2021/04/30 11:11:12;;;;;;;9.68;3.22;;;28.00;58.70;;;;;;4896082;29;20052;-74
2021/04/30 11:13:38;;;;;;;12.73;4.45;;;28.20;62.00;;;;;;4896265;29;20527;-72
2021/04/30 11:16:04;;;;;;;8.57;3.42;;;28.10;66.80;;;;;;4895976;29;20100;-71
2021/04/30 11:18:50;;;;;;;6.75;2.60;;;27.40;63.20;;;;;;4896309;29;20077;-82
2021/04/30 11:21:18;;;;;;;6.25;2.92;;;26.90;65.00;;;;;;4896272;29;20028;-73
2021/04/30 11:23:53;;;;;;;8.40;2.67;;;26.70;64.10;;;;;;4938526;28;20130;-75
2021/04/30 11:26:32;;;;;;;10.10;2.95;;;27.10;64.80;;;;;;4974731;28;20536;-74
2021/04/30 11:28:58;;;;;;;6.85;2.30;;;27.40;67.50;;;;;;4974551;28;20031;-73
2021/04/30 11:31:32;;;;;;;3.80;2.10;;;27.50;66.20;;;;;;4974395;28;20592;-73
2021/04/30 11:34:15;;;;;;;;;;;27.50;66.30;;;;;;4957914;28;20034;-70
2021/04/30 11:36:48;;;;;;;10.77;3.95;;;27.60;66.40;;;;;;4957588;28;20267;-76
2021/04/30 11:39:16;;;;;;;7.88;2.95;;;27.80;63.90;;;;;;4957069;28;20062;-76
2021/04/30 11:41:43;;;;;;;6.03;2.85;;;28.00;68.00;;;;;;4974600;28;20027;-76
2021/04/30 11:44:09;;;;;;;8.10;2.38;;;28.20;62.90;;;;;;4956691;28;20038;-72
2021/04/30 11:46:38;;;;;;;6.07;2.15;;;28.20;61.00;;;;;;4974075;28;20043;-71
2021/04/30 11:49:04;;;;;;;6.35;1.90;;;28.40;62.60;;;;;;4974519;28;20027;-77
2021/04/30 11:51:41;;;;;;;5.35;1.77;;;28.50;62.70;;;;;;4957065;28;20033;-72
2021/04/30 11:54:07;;;;;;;6.45;2.47;;;28.60;61.60;;;;;;4957081;28;20035;-75
2021/04/30 11:56:33;;;;;;;9.77;2.30;;;28.90;61.40;;;;;;4974088;28;20035;-72
2021/04/30 11:58:58;;;;;;;9.70;2.60;;;28.80;66.70;;;;;;4974441;28;20030;-71
2021/04/30 12:01:26;;;;;;;6.18;2.58;;;28.80;60.00;;;;;;4974239;28;20421;-76
2021/04/30 12:03:54;;;;;;;10.38;3.13;;;29.00;59.90;;;;;;4956969;28;20033;-75
2021/04/30 12:06:27;;;;;;;9.68;2.30;;;29.10;58.60;;;;;;4974187;28;20021;-71
2021/04/30 12:08:55;;;;;;;5.47;1.90;;;29.30;59.00;;;;;;4956861;28;20026;-74
2021/04/30 12:11:29;;;;;;;7.22;2.35;;;28.70;54.20;;;;;;4956781;28;20019;-71
2021/04/30 12:13:58;;;;;;;8.40;2.00;;;28.40;58.70;;;;;;4974783;28;20116;-75
2021/04/30 12:16:24;;;;;;;7.40;2.40;;;28.90;58.70;;;;;;4974171;28;20081;-75
2021/04/30 12:18:57;;;;;;;6.63;2.10;;;28.90;59.70;;;;;;4974375;28;20069;-75
2021/04/30 12:21:26;;;;;;;8.80;2.83;;;28.80;57.80;;;;;;4974444;28;20023;-77
2021/04/30 12:23:53;;;;;;;11.98;2.80;;;28.70;61.30;;;;;;4977860;28;20031;-75
2021/04/30 12:26:27;;;;;;;12.32;3.30;;;28.50;60.80;;;;;;4977770;28;20043;-76
2021/04/30 12:28:56;;;;;;;6.93;2.35;;;28.10;61.50;;;;;;4977262;28;20437;-73
2021/04/30 12:31:25;;;;;;;7.80;2.50;;;27.70;61.40;;;;;;4977320;28;20109;-75
2021/04/30 12:33:53;;;;;;;6.53;2.20;;;27.50;61.80;;;;;;4977260;28;20027;-73
2021/04/30 12:36:24;;;;;;;6.18;2.00;;;27.20;61.60;;;;;;4959526;28;20037;-74
2021/04/30 12:39:04;;;;;;;7.45;2.10;;;27.00;64.60;;;;;;4977377;28;20034;-75
2021/04/30 12:41:32;;;;;;;5.80;2.20;;;27.10;65.10;;;;;;4959925;28;20041;-75